Time;durP1;ratioP1;P1;durP2;ratioP2;P2;SDS_P1;SDS_P2;PMS_P1;PMS_P2;Temp;Humidity;BMP_temperature;BMP_pressure;BME280_temperature;BME280_humidity;BME280_pressure;Samples;Min_cycle;Max_cycle;Signal;HPM_P1;HPM_P2
2022/10/14 00:01:19;;;;;;;27.63;19.53;;;13.20;39.80;;;;;;5036200;28;20269;-66
2022/10/14 00:03:46;;;;;;;30.20;19.17;;;13.20;8.70;;;;;;5061383;28;20249;-66
2022/10/14 00:06:19;;;;;;;26.93;20.13;;;13.20;99.90;;;;;;5050038;28;20206;-66
2022/10/14 00:08:47;;;;;;;27.47;20.23;;;13.20;38.10;;;;;;5044671;28;20203;-66
2022/10/14 00:11:20;;;;;;;30.97;21.37;;;13.20;99.90;;;;;;5042900;28;20211;-66
2022/10/14 00:13:47;;;;;;;24.80;19.30;;;13.10;99.90;;;;;;5062910;28;20192;-67
2022/10/14 00:16:18;;;;;;;24.90;19.00;;;13.20;99.90;;;;;;5044587;28;20219;-65
2022/10/14 00:18:46;;;;;;;29.90;20.80;;;13.10;99.90;;;;;;5062524;28;20199;-67
2022/10/14 00:21:13;;;;;;;29.73;19.53;;;13.20;99.90;;;;;;5044610;28;20705;-66
2022/10/14 00:23:40;;;;;;;28.20;19.90;;;13.20;99.90;;;;;;5058588;28;20200;-67
2022/10/14 00:26:24;;;;;;;25.60;19.47;;;13.20;99.90;;;;;;5061348;28;20228;-67
2022/10/14 00:28:52;;;;;;;24.33;20.00;;;13.20;99.90;;;;;;5027638;28;20259;-68
2022/10/14 00:31:20;;;;;;;28.23;20.80;;;13.20;83.80;;;;;;5051822;28;20192;-68
2022/10/14 00:33:48;;;;;;;32.20;20.23;;;13.20;99.90;;;;;;5062746;28;20230;-69
2022/10/14 00:36:18;;;;;;;37.97;21.40;;;13.20;99.90;;;;;;5044217;28;20891;-69
2022/10/14 00:38:45;;;;;;;36.33;22.03;;;13.10;99.90;;;;;;5061806;28;20203;-69
2022/10/14 00:41:18;;;;;;;35.37;22.13;;;13.10;99.90;;;;;;5044146;28;20206;-69
2022/10/14 00:43:54;;;;;;;28.53;20.87;;;13.10;99.90;;;;;;5035184;28;20291;-68
2022/10/14 00:46:22;;;;;;;28.80;21.67;;;13.20;99.90;;;;;;5050222;28;20210;-71
2022/10/14 00:49:00;;;;;;;30.03;20.50;;;13.10;99.90;;;;;;5043671;28;20225;-71
2022/10/14 00:51:27;;;;;;;35.77;21.80;;;13.20;99.90;;;;;;5025178;28;20203;-71
2022/10/14 00:53:54;;;;;;;30.30;21.70;;;13.20;99.90;;;;;;5051620;28;20205;-70
2022/10/14 00:56:24;;;;;;;35.87;22.53;;;13.10;99.90;;;;;;5060622;28;20215;-72
2022/10/14 00:58:52;;;;;;;30.03;21.77;;;13.10;99.90;;;;;;5060621;28;20300;-71
2022/10/14 01:01:19;;;;;;;32.80;22.43;;;13.10;99.90;;;;;;5043664;28;20301;-68
2022/10/14 01:03:46;;;;;;;32.97;21.80;;;13.10;99.90;;;;;;5045713;28;20203;-68
2022/10/14 01:06:13;;;;;;;30.37;22.17;;;13.10;99.90;;;;;;5050809;28;20616;-67
2022/10/14 01:08:59;;;;;;;31.43;21.87;;;13.20;99.90;;;;;;5045254;28;20279;-69
2022/10/14 01:11:39;;;;;;;31.13;22.03;;;13.20;99.90;;;;;;5063371;28;20230;-66
2022/10/14 01:14:12;;;;;;;33.97;23.47;;;13.20;99.90;;;;;;5043693;28;20632;-69
2022/10/14 01:16:59;;;;;;;36.53;24.23;;;13.10;99.90;;;;;;5042954;28;20215;-69
2022/10/14 01:19:45;;;;;;;32.77;23.97;;;13.00;99.90;;;;;;5033668;28;20220;-70
2022/10/14 01:22:27;;;;;;;34.07;24.43;;;13.10;1.00;;;;;;5060257;28;20234;-68
2022/10/14 01:25:18;;;;;;;34.33;24.83;;;13.10;1.00;;;;;;5058534;28;20228;-71
2022/10/14 01:28:10;;;;;;;33.47;25.10;;;13.10;99.90;;;;;;5042162;28;20196;-71
2022/10/14 01:30:45;;;;;;;34.70;24.43;;;13.00;1.00;;;;;;5058332;28;20203;-70
2022/10/14 01:33:14;;;;;;;35.43;24.20;;;13.00;1.00;;;;;;5027699;28;20209;-69
2022/10/14 01:36:07;;;;;;;38.33;26.60;;;13.00;1.00;;;;;;5048325;28;20222;-69
2022/10/14 01:38:45;;;;;;;35.87;26.27;;;13.00;1.00;;;;;;5049013;28;20198;-68
2022/10/14 01:41:53;;;;;;;41.57;28.47;;;13.00;1.00;;;;;;5049361;28;20203;-68
2022/10/14 01:44:24;;;;;;;43.40;27.60;;;13.00;1.00;;;;;;5040460;28;20203;-67
2022/10/14 01:46:53;;;;;;;38.57;27.40;;;13.10;1.00;;;;;;5059152;28;20699;-68
2022/10/14 01:49:29;;;;;;;41.17;30.00;;;13.10;1.00;;;;;;5043644;28;20240;-68
2022/10/14 01:52:12;;;;;;;40.63;25.60;;;13.10;1.00;;;;;;5049612;28;20713;-68
2022/10/14 01:54:43;;;;;;;33.93;27.37;;;13.10;1.00;;;;;;5024456;28;21134;-68
2022/10/14 01:57:16;;;;;;;39.07;28.03;;;13.10;1.00;;;;;;5043187;28;20211;-69
2022/10/14 01:59:44;;;;;;;39.30;28.83;;;13.10;1.00;;;;;;5042921;28;20204;-66
2022/10/14 02:02:12;;;;;;;37.80;27.10;;;13.10;1.00;;;;;;5033651;28;20191;-66
2022/10/14 02:04:40;;;;;;;34.67;25.87;;;13.10;1.00;;;;;;5043536;28;20670;-68
2022/10/14 02:07:33;;;;;;;39.97;28.80;;;13.00;1.00;;;;;;5031328;28;20243;-68
2022/10/14 02:10:07;;;;;;;36.87;27.40;;;13.00;1.00;;;;;;5042081;28;20222;-68
2022/10/14 02:13:05;;;;;;;38.27;27.47;;;13.00;1.00;;;;;;5049113;28;20202;-68
2022/10/14 02:15:36;;;;;;;37.03;26.20;;;13.10;1.00;;;;;;5049802;28;20243;-68
2022/10/14 02:18:32;;;;;;;37.03;26.70;;;13.10;1.00;;;;;;5061093;28;20220;-68
2022/10/14 02:21:17;;;;;;;34.53;26.77;;;13.10;1.00;;;;;;5050230;28;20288;-67
2022/10/14 02:24:00;;;;;;;34.33;26.50;;;13.10;1.00;;;;;;5060817;28;21102;-67
2022/10/14 02:26:28;;;;;;;37.00;26.27;;;13.10;28.40;;;;;;5049185;28;20760;-68
2022/10/14 02:28:58;;;;;;;35.33;27.13;;;13.10;91.70;;;;;;5025815;28;20214;-68
2022/10/14 02:31:28;;;;;;;36.87;27.70;;;13.10;99.90;;;;;;5042681;28;20203;-69
2022/10/14 02:33:59;;;;;;;34.57;25.50;;;13.10;99.90;;;;;;5061753;28;20200;-69
2022/10/14 02:36:28;;;;;;;36.40;26.93;;;13.10;99.90;;;;;;5060822;28;20597;-68
2022/10/14 02:38:58;;;;;;;40.50;27.93;;;13.10;99.90;;;;;;5059302;28;20665;-68
2022/10/14 02:41:33;;;;;;;37.27;27.40;;;13.10;99.90;;;;;;5049035;28;20304;-68
2022/10/14 02:44:00;;;;;;;41.60;28.87;;;13.10;99.90;;;;;;5032059;28;20680;-68
2022/10/14 02:46:28;;;;;;;37.20;26.67;;;13.10;99.90;;;;;;5039776;28;20253;-69
2022/10/14 02:48:55;;;;;;;38.93;27.10;;;13.10;28.20;;;;;;5047401;28;20195;-67
2022/10/14 02:51:22;;;;;;;39.87;28.17;;;13.20;1.00;;;;;;5041095;28;20199;-68
2022/10/14 02:53:49;;;;;;;35.30;24.73;;;13.20;1.00;;;;;;5047800;28;20654;-68
2022/10/14 02:56:16;;;;;;;36.90;26.47;;;13.30;1.00;;;;;;5033188;28;20755;-68
2022/10/14 02:58:44;;;;;;;37.63;26.77;;;13.20;1.00;;;;;;5043334;28;20276;-69
2022/10/14 03:01:11;;;;;;;37.57;27.27;;;13.20;1.00;;;;;;5043778;28;20196;-68
2022/10/14 03:03:38;;;;;;;39.17;27.23;;;13.10;1.00;;;;;;5054014;28;20202;-68
2022/10/14 03:06:06;;;;;;;33.63;26.37;;;13.10;1.00;;;;;;5053000;28;20231;-67
2022/10/14 03:08:33;;;;;;;37.97;25.57;;;13.10;54.30;;;;;;5064216;28;20215;-67
2022/10/14 03:11:02;;;;;;;39.60;26.83;;;13.20;1.00;;;;;;5052352;28;20202;-67
2022/10/14 03:13:29;;;;;;;35.03;27.57;;;13.10;1.00;;;;;;5050820;28;20297;-67
2022/10/14 03:15:57;;;;;;;36.90;27.63;;;13.20;1.00;;;;;;5042745;28;20263;-67
2022/10/14 03:18:25;;;;;;;36.10;27.83;;;13.20;25.20;;;;;;5039696;28;20674;-68
2022/10/14 03:20:57;;;;;;;38.97;28.07;;;13.10;37.20;;;;;;5030224;28;20221;-68
2022/10/14 03:23:32;;;;;;;39.40;27.90;;;13.10;99.90;;;;;;5045393;28;20198;-67
2022/10/14 03:25:58;;;;;;;38.17;28.57;;;13.10;99.90;;;;;;5043806;28;20248;-68
2022/10/14 03:28:32;;;;;;;40.27;29.17;;;13.10;99.90;;;;;;5059890;28;20696;-68
2022/10/14 03:31:07;;;;;;;37.50;28.40;;;13.10;99.90;;;;;;5051248;28;20198;-67
2022/10/14 03:33:53;;;;;;;43.43;30.77;;;13.10;1.00;;;;;;5044751;28;20218;-67
2022/10/14 03:36:20;;;;;;;41.33;30.27;;;13.10;1.00;;;;;;5051162;28;20629;-66
2022/10/14 03:38:52;;;;;;;41.70;31.03;;;13.10;1.00;;;;;;5042357;28;20206;-66
2022/10/14 03:41:30;;;;;;;40.53;30.03;;;13.00;1.00;;;;;;5051731;28;20278;-67
2022/10/14 03:43:57;;;;;;;43.07;29.50;;;13.00;1.00;;;;;;5027483;28;20450;-67
2022/10/14 03:46:25;;;;;;;39.27;28.60;;;13.00;1.00;;;;;;5049636;28;20277;-67
2022/10/14 03:48:55;;;;;;;40.97;31.07;;;13.00;1.00;;;;;;5048969;28;20276;-67
2022/10/14 03:51:23;;;;;;;42.80;30.50;;;13.00;1.00;;;;;;5043651;28;20186;-67
2022/10/14 03:53:55;;;;;;;34.60;27.77;;;13.00;1.00;;;;;;5052172;28;20206;-66
2022/10/14 03:56:26;;;;;;;39.20;29.50;;;13.00;28.30;;;;;;5042229;28;20306;-66
2022/10/14 03:58:53;;;;;;;40.10;31.23;;;13.00;99.90;;;;;;5041566;28;20198;-67
2022/10/14 04:01:22;;;;;;;41.23;29.57;;;13.00;99.90;;;;;;5034302;28;20188;-67
2022/10/14 04:04:18;;;;;;;48.83;30.37;;;12.90;99.90;;;;;;5043488;28;20772;-66
2022/10/14 04:06:45;;;;;;;40.60;29.77;;;13.00;99.90;;;;;;5043028;28;20238;-66
2022/10/14 04:09:14;;;;;;;42.70;29.50;;;12.90;99.90;;;;;;5043021;28;20685;-67
2022/10/14 04:11:41;;;;;;;38.47;29.07;;;12.90;99.90;;;;;;5042640;28;20235;-66
2022/10/14 04:14:17;;;;;;;41.87;29.70;;;12.90;99.90;;;;;;5042931;28;20205;-66
2022/10/14 04:16:47;;;;;;;39.20;29.30;;;12.90;99.90;;;;;;5050530;28;20228;-66
2022/10/14 04:19:17;;;;;;;42.40;30.30;;;12.90;99.90;;;;;;5035497;28;20867;-67
2022/10/14 04:21:44;;;;;;;46.73;30.43;;;12.90;99.90;;;;;;5034357;28;20198;-67
2022/10/14 04:24:11;;;;;;;46.20;31.67;;;12.90;99.90;;;;;;5051720;28;20221;-67
2022/10/14 04:26:48;;;;;;;41.60;30.63;;;12.90;1.00;;;;;;5051304;28;20203;-67
2022/10/14 04:29:22;;;;;;;44.23;31.73;;;12.90;1.00;;;;;;5042348;28;20211;-66
2022/10/14 04:31:55;;;;;;;43.90;30.83;;;12.90;1.00;;;;;;5043790;28;20572;-67
2022/10/14 04:34:22;;;;;;;43.57;30.07;;;12.90;1.00;;;;;;5061984;28;20206;-67
2022/10/14 04:36:52;;;;;;;42.63;29.70;;;12.90;1.00;;;;;;5049870;28;20240;-67
2022/10/14 04:39:27;;;;;;;40.40;28.83;;;12.90;1.00;;;;;;5041366;28;20226;-67
2022/10/14 04:41:55;;;;;;;40.13;29.57;;;12.90;1.00;;;;;;5040433;28;20206;-67
2022/10/14 04:44:22;;;;;;;41.30;29.77;;;12.90;1.00;;;;;;5045046;28;20206;-67
2022/10/14 04:46:52;;;;;;;39.40;30.03;;;12.90;1.00;;;;;;5049919;28;20217;-67
2022/10/14 04:49:22;;;;;;;40.87;28.83;;;12.90;1.00;;;;;;5042238;28;20207;-67
2022/10/14 04:51:59;;;;;;;39.70;30.23;;;12.90;1.00;;;;;;5047582;28;20295;-67
2022/10/14 04:54:44;;;;;;;41.03;29.90;;;12.90;1.00;;;;;;5051245;28;20205;-67
2022/10/14 04:57:11;;;;;;;43.90;29.70;;;12.90;1.00;;;;;;5041779;28;20886;-67
2022/10/14 04:59:39;;;;;;;42.47;30.83;;;12.90;1.00;;;;;;5041226;28;21095;-67
2022/10/14 05:02:06;;;;;;;39.53;30.37;;;12.90;1.00;;;;;;5044389;28;20238;-67
2022/10/14 05:04:45;;;;;;;40.20;29.00;;;12.90;1.00;;;;;;5028324;28;20203;-67
2022/10/14 05:07:13;;;;;;;38.47;29.07;;;12.90;1.00;;;;;;5040945;28;21075;-68
2022/10/14 05:09:40;;;;;;;39.57;28.43;;;12.90;1.00;;;;;;5050484;28;20610;-68
2022/10/14 05:12:23;;;;;;;42.63;30.20;;;12.90;1.00;;;;;;5048761;28;20289;-67
2022/10/14 05:14:55;;;;;;;41.73;29.13;;;12.90;1.00;;;;;;5050505;28;20289;-68
2022/10/14 05:17:29;;;;;;;44.03;29.07;;;12.90;1.00;;;;;;5058070;28;20500;-68
2022/10/14 05:19:56;;;;;;;43.20;29.60;;;12.80;1.00;;;;;;5059220;28;20284;-68
2022/10/14 05:22:26;;;;;;;43.53;30.73;;;12.90;1.00;;;;;;5043014;28;20203;-68
2022/10/14 05:25:00;;;;;;;41.60;31.13;;;12.90;1.00;;;;;;5051183;28;20199;-67
2022/10/14 05:27:27;;;;;;;39.97;30.50;;;12.90;1.00;;;;;;5044721;28;20203;-68
2022/10/14 05:29:54;;;;;;;42.03;29.47;;;12.80;1.00;;;;;;5032988;28;20324;-68
2022/10/14 05:32:21;;;;;;;40.67;29.97;;;12.80;1.00;;;;;;5048792;28;20814;-69
2022/10/14 05:34:51;;;;;;;45.47;31.93;;;12.80;39.10;;;;;;5040722;28;20295;-67
2022/10/14 05:37:26;;;;;;;45.13;30.37;;;12.80;99.90;;;;;;5029009;28;20214;-68
2022/10/14 05:39:54;;;;;;;45.27;31.53;;;12.80;99.90;;;;;;5044126;28;20980;-68
2022/10/14 05:42:25;;;;;;;43.67;31.33;;;12.80;99.90;;;;;;5049596;28;20223;-68
2022/10/14 05:44:55;;;;;;;43.03;31.93;;;12.80;99.90;;;;;;5033204;28;20198;-68
2022/10/14 05:47:23;;;;;;;47.47;33.07;;;12.80;99.90;;;;;;5033607;28;20290;-68
2022/10/14 05:49:55;;;;;;;45.20;31.70;;;12.80;99.90;;;;;;5045180;28;20206;-67
2022/10/14 05:52:23;;;;;;;45.00;31.37;;;12.80;99.90;;;;;;5049321;28;20183;-67
2022/10/14 05:54:51;;;;;;;48.83;32.63;;;12.80;1.00;;;;;;5044984;28;20187;-66
2022/10/14 05:57:22;;;;;;;49.13;34.20;;;12.80;1.00;;;;;;5033957;28;20233;-67
2022/10/14 05:59:49;;;;;;;52.73;33.13;;;12.80;1.00;;;;;;5043947;28;20199;-67
2022/10/14 06:02:15;;;;;;;47.00;33.47;;;12.80;1.00;;;;;;5049924;28;20200;-67
2022/10/14 06:08:09;;;;;;;47.53;32.00;;;12.80;1.00;;;;;;4237189;26;20244;-67
2022/10/14 06:10:37;;;;;;;45.90;32.20;;;12.80;1.00;;;;;;5032477;28;20258;-67
2022/10/14 06:13:04;;;;;;;43.90;31.07;;;12.80;25.40;;;;;;5017608;28;20623;-67
2022/10/14 06:15:35;;;;;;;47.30;33.00;;;12.80;75.40;;;;;;4996772;28;20291;-67
2022/10/14 06:18:02;;;;;;;53.00;38.03;;;12.80;99.80;;;;;;5000322;28;20271;-68
2022/10/14 06:20:30;;;;;;;44.93;32.67;;;12.80;99.90;;;;;;5017572;28;20263;-67
2022/10/14 06:23:01;;;;;;;49.40;33.00;;;12.80;99.90;;;;;;5018795;28;20658;-68
2022/10/14 06:25:29;;;;;;;44.40;31.07;;;12.80;99.90;;;;;;5017613;28;20189;-67
2022/10/14 06:28:04;;;;;;;44.70;29.53;;;12.80;99.90;;;;;;5017493;28;20242;-67
2022/10/14 06:30:32;;;;;;;44.17;29.67;;;12.80;99.90;;;;;;5016405;28;20199;-66
2022/10/14 06:32:59;;;;;;;43.20;29.57;;;12.80;99.90;;;;;;5033698;28;20239;-68
2022/10/14 06:35:26;;;;;;;39.43;28.03;;;12.80;99.90;;;;;;5020750;28;20205;-68
2022/10/14 06:37:53;;;;;;;44.20;28.63;;;12.80;99.90;;;;;;5034915;28;20350;-67
2022/10/14 06:40:20;;;;;;;41.67;28.00;;;12.80;1.00;;;;;;5015596;28;20193;-65
2022/10/14 06:42:47;;;;;;;36.67;24.80;;;12.80;1.00;;;;;;5028839;28;20235;-67
2022/10/14 06:45:16;;;;;;;42.40;26.03;;;12.90;99.90;;;;;;5021707;28;20453;-67
2022/10/14 06:47:43;;;;;;;42.40;26.47;;;12.90;99.90;;;;;;5019662;28;20208;-66
2022/10/14 06:50:10;;;;;;;34.70;23.90;;;13.90;37.80;;;;;;5021605;28;20904;-67
2022/10/14 06:52:37;;;;;;;36.30;24.97;;;12.90;1.00;;;;;;5034507;28;20343;-69
2022/10/14 06:55:05;;;;;;;37.20;22.10;;;13.00;1.00;;;;;;5031159;28;20262;-63
2022/10/14 06:57:33;;;;;;;34.43;21.33;;;13.00;1.00;;;;;;5021687;28;20717;-63
2022/10/14 07:00:00;;;;;;;28.43;20.87;;;13.00;1.00;;;;;;5020575;28;20200;-62
2022/10/14 07:02:27;;;;;;;33.33;21.50;;;13.20;99.90;;;;;;5037029;28;20235;-63
2022/10/14 07:04:54;;;;;;;24.40;18.83;;;13.40;1.00;;;;;;5018814;28;20287;-61
2022/10/14 07:07:20;;;;;;;23.33;18.50;;;13.60;99.90;;;;;;5033096;28;20275;-63
2022/10/14 07:09:47;;;;;;;21.37;17.50;;;13.60;1.00;;;;;;5001102;28;20283;-63
2022/10/14 07:12:14;;;;;;;18.77;16.50;;;13.60;99.90;;;;;;5001166;28;20203;-64
2022/10/14 07:14:41;;;;;;;17.97;15.07;;;13.80;99.90;;;;;;5016680;28;20213;-62
2022/10/14 07:17:08;;;;;;;19.43;14.80;;;13.90;15.20;;;;;;4999074;28;20690;-61
2022/10/14 07:19:35;;;;;;;16.77;13.20;;;14.10;1.00;;;;;;4997007;28;20208;-62
2022/10/14 07:22:03;;;;;;;13.70;12.25;;;14.50;99.90;;;;;;5016333;28;20224;-61
2022/10/14 07:24:30;;;;;;;14.52;11.32;;;14.60;99.90;;;;;;5033474;28;20285;-61
2022/10/14 07:26:57;;;;;;;12.15;10.32;;;14.70;1.00;;;;;;4996792;28;20248;-61
2022/10/14 07:29:24;;;;;;;11.10;8.82;;;14.60;99.90;;;;;;4998767;28;20213;-64
2022/10/14 07:31:51;;;;;;;10.55;8.27;;;14.20;1.00;;;;;;5014473;28;20241;-64
2022/10/14 07:34:18;;;;;;;12.25;9.25;;;14.00;99.90;;;;;;4997498;28;20194;-65
2022/10/14 07:36:45;;;;;;;9.67;8.73;;;13.90;1.00;;;;;;5028258;28;20193;-64
2022/10/14 07:39:12;;;;;;;12.47;8.77;;;13.70;1.00;;;;;;5015000;28;20704;-64
2022/10/14 07:41:39;;;;;;;10.67;9.50;;;13.60;99.90;;;;;;5030680;28;20200;-64
2022/10/14 07:44:08;;;;;;;10.73;9.63;;;13.60;99.90;;;;;;5000598;28;20236;-64
2022/10/14 07:46:38;;;;;;;10.00;9.00;;;13.70;1.00;;;;;;5007569;28;20300;-64
2022/10/14 07:49:16;;;;;;;9.13;8.13;;;13.60;99.90;;;;;;4999885;28;20319;-62
2022/10/14 07:51:44;;;;;;;10.97;8.20;;;13.70;99.90;;;;;;4998879;28;20196;-64
2022/10/14 07:54:18;;;;;;;9.63;8.63;;;13.80;99.90;;;;;;5014982;28;20211;-65
2022/10/14 07:56:48;;;;;;;10.57;9.43;;;13.90;1.00;;;;;;5001134;28;20201;-63
2022/10/14 07:59:17;;;;;;;8.87;7.87;;;14.00;1.00;;;;;;5006285;28;20224;-62
2022/10/14 08:01:48;;;;;;;7.97;7.23;;;14.40;99.90;;;;;;5030880;28;20256;-62
2022/10/14 08:04:16;;;;;;;9.07;7.07;;;14.50;1.00;;;;;;5005017;28;20197;-62
2022/10/14 08:06:45;;;;;;;7.95;6.50;;;14.80;99.90;;;;;;5000882;28;20249;-63
2022/10/14 08:09:12;;;;;;;7.38;6.68;;;14.90;99.90;;;;;;5001080;28;20236;-62
2022/10/14 08:11:39;;;;;;;6.03;5.43;;;15.20;1.00;;;;;;5033009;28;20327;-62
2022/10/14 08:14:06;;;;;;;6.55;5.55;;;15.50;1.00;;;;;;5000364;28;20633;-62
2022/10/14 08:16:34;;;;;;;6.18;5.57;;;15.80;1.00;;;;;;5032437;28;20792;-63
2022/10/14 08:19:08;;;;;;;9.80;5.50;;;16.00;99.90;;;;;;5001656;28;20308;-63
2022/10/14 08:21:40;;;;;;;5.70;5.20;;;16.30;1.00;;;;;;5017667;28;20624;-63
2022/10/14 08:24:08;;;;;;;7.05;6.22;;;16.20;1.00;;;;;;5015363;28;20545;-62
2022/10/14 08:26:37;;;;;;;7.03;6.32;;;15.80;99.90;;;;;;5014237;28;20430;-63
2022/10/14 08:29:10;;;;;;;5.30;4.80;;;15.90;99.90;;;;;;5000186;28;20296;-63
2022/10/14 08:31:37;;;;;;;5.70;5.20;;;15.90;1.00;;;;;;4990177;28;20518;-63
2022/10/14 08:34:05;;;;;;;5.00;4.60;;;16.10;1.00;;;;;;5031861;28;20288;-62
2022/10/14 08:36:32;;;;;;;4.82;4.40;;;16.10;1.00;;;;;;5000853;28;20205;-62
2022/10/14 08:38:59;;;;;;;4.88;4.38;;;16.00;1.00;;;;;;5002338;28;20249;-62
2022/10/14 08:41:49;;;;;;;6.47;4.57;;;15.80;1.00;;;;;;4999365;28;20655;-63
2022/10/14 08:44:18;;;;;;;5.65;3.75;;;15.60;73.10;;;;;;5028294;28;20198;-65
2022/10/14 08:46:51;;;;;;;4.47;3.97;;;15.60;1.00;;;;;;4998201;28;20197;-63
2022/10/14 08:49:30;;;;;;;4.18;3.80;;;15.70;88.60;;;;;;5030245;28;20565;-64
2022/10/14 08:52:12;;;;;;;3.97;3.58;;;16.00;1.00;;;;;;5034688;28;20698;-63
2022/10/14 08:54:43;;;;;;;4.20;3.78;;;16.30;1.00;;;;;;4996736;28;20717;-63
2022/10/14 08:57:19;;;;;;;4.05;3.65;;;16.20;1.00;;;;;;5001341;28;20190;-63
2022/10/14 08:59:47;;;;;;;3.40;3.10;;;16.20;1.00;;;;;;5014628;28;20201;-63
2022/10/14 09:02:32;;;;;;;3.60;3.28;;;16.30;1.00;;;;;;5032889;28;20240;-63
2022/10/14 09:05:01;;;;;;;3.13;2.80;;;16.40;1.00;;;;;;5001906;28;20244;-63
2022/10/14 09:07:30;;;;;;;4.32;3.20;;;16.30;1.00;;;;;;5031271;28;20666;-63
2022/10/14 09:10:05;;;;;;;5.18;3.10;;;16.30;1.00;;;;;;5013916;28;20665;-63
2022/10/14 09:12:34;;;;;;;2.25;2.03;;;16.60;1.00;;;;;;4999584;28;20204;-63
2022/10/14 09:15:15;;;;;;;2.78;2.38;;;16.20;1.00;;;;;;5013035;28;20550;-63
2022/10/14 09:18:28;;;;;;;2.47;2.28;;;16.50;99.90;;;;;;4998242;28;20235;-63
2022/10/14 09:20:57;;;;;;;2.60;1.95;;;16.80;99.90;;;;;;5010606;28;20200;-63
2022/10/14 09:23:26;;;;;;;3.10;2.13;;;18.00;99.90;;;;;;5021209;28;20202;-63
2022/10/14 09:26:16;;;;;;;2.35;2.05;;;18.40;44.30;;;;;;4997415;28;20294;-64
2022/10/14 09:28:44;;;;;;;2.58;2.00;;;18.10;1.00;;;;;;5031409;28;20794;-63
2022/10/14 09:31:13;;;;;;;2.22;1.77;;;17.30;99.90;;;;;;5012810;28;20469;-63
2022/10/14 09:33:41;;;;;;;2.35;1.95;;;16.70;99.90;;;;;;4988134;28;20223;-63
2022/10/14 09:36:11;;;;;;;2.00;1.80;;;16.60;99.90;;;;;;4997773;28;20683;-63
2022/10/14 09:38:38;;;;;;;1.90;1.80;;;17.00;99.90;;;;;;5013953;28;20747;-63
2022/10/14 09:41:11;;;;;;;3.60;1.88;;;16.80;99.90;;;;;;4998608;28;20621;-63
2022/10/14 09:44:20;;;;;;;3.80;2.15;;;16.30;99.90;;;;;;5011179;28;20753;-63
2022/10/14 09:46:54;;;;;;;3.10;1.77;;;16.20;99.90;;;;;;5029207;28;20205;-63
2022/10/14 09:49:38;;;;;;;2.15;1.80;;;16.30;99.90;;;;;;5014260;28;20397;-63
2022/10/14 09:52:07;;;;;;;2.25;2.03;;;16.30;99.90;;;;;;5031332;28;20502;-63
2022/10/14 09:54:34;;;;;;;2.38;2.17;;;16.30;1.00;;;;;;4997740;28;20281;-63
2022/10/14 09:57:07;;;;;;;3.38;1.70;;;16.20;99.90;;;;;;4999115;28;20197;-63
2022/10/14 09:59:53;;;;;;;1.77;1.67;;;16.30;99.90;;;;;;5024821;28;20216;-64
2022/10/14 10:02:23;;;;;;;1.73;1.50;;;16.50;99.90;;;;;;5010674;28;20572;-63
2022/10/14 10:04:52;;;;;;;1.90;1.70;;;16.30;99.90;;;;;;5014581;28;20258;-64
2022/10/14 10:07:31;;;;;;;2.45;1.52;;;16.30;99.90;;;;;;4998279;28;20229;-63
2022/10/14 10:10:15;;;;;;;1.80;1.70;;;16.50;99.90;;;;;;5013502;28;20209;-63
2022/10/14 10:12:45;;;;;;;2.40;1.88;;;16.50;99.90;;;;;;5012012;28;20205;-63
2022/10/14 10:15:20;;;;;;;2.53;1.70;;;16.70;99.90;;;;;;4998934;28;20197;-63
2022/10/14 10:17:48;;;;;;;2.53;1.75;;;16.90;99.90;;;;;;4998503;28;20585;-63
2022/10/14 10:20:32;;;;;;;1.98;1.65;;;17.40;99.90;;;;;;4998561;28;20262;-63
2022/10/14 10:23:27;;;;;;;1.50;1.40;;;16.90;99.90;;;;;;4989725;28;20204;-64
2022/10/14 10:25:56;;;;;;;2.15;1.58;;;16.90;99.90;;;;;;4997373;28;20249;-63
2022/10/14 10:28:30;;;;;;;5.47;2.00;;;16.90;99.90;;;;;;5012364;28;20630;-64
2022/10/14 10:31:27;;;;;;;4.18;1.63;;;16.90;99.90;;;;;;4997155;28;20211;-64
2022/10/14 10:34:00;;;;;;;2.08;1.88;;;16.80;99.90;;;;;;5010623;28;20276;-64
2022/10/14 10:36:39;;;;;;;2.58;1.48;;;17.20;99.90;;;;;;5013674;28;20223;-63
2022/10/14 10:39:15;;;;;;;1.55;1.45;;;17.50;93.40;;;;;;5027980;28;20209;-63
2022/10/14 10:41:57;;;;;;;1.50;1.40;;;17.70;47.60;;;;;;4998596;28;20250;-64
2022/10/14 10:44:43;;;;;;;1.98;1.40;;;17.70;26.20;;;;;;5011982;28;20518;-63
2022/10/14 10:47:10;;;;;;;2.03;1.20;;;17.30;92.70;;;;;;4997537;28;20205;-64
2022/10/14 10:50:08;;;;;;;2.28;1.40;;;17.00;99.90;;;;;;5027550;28;20604;-64
2022/10/14 10:53:08;;;;;;;1.27;1.17;;;16.90;99.90;;;;;;4999479;28;20276;-64
2022/10/14 10:55:35;;;;;;;1.58;1.40;;;17.10;99.90;;;;;;4999477;28;20205;-63
2022/10/14 10:58:16;;;;;;;1.45;1.30;;;16.80;99.90;;;;;;4998395;28;20197;-64
2022/10/14 11:00:52;;;;;;;1.48;1.20;;;16.70;99.90;;;;;;5028214;28;20586;-63
2022/10/14 11:03:25;;;;;;;1.20;1.00;;;16.70;99.90;;;;;;4996283;28;20196;-64
2022/10/14 11:06:11;;;;;;;2.58;1.17;;;16.60;99.90;;;;;;4995037;28;20408;-64
2022/10/14 11:15:01;;;;;;;1.75;1.27;;;17.30;97.60;;;;;;4997404;28;20204;-65
2022/10/14 11:17:35;;;;;;;1.65;0.90;;;18.10;1.00;;;;;;4997733;28;20200;-64
2022/10/14 11:20:26;;;;;;;1.30;1.00;;;18.30;1.00;;;;;;5001286;28;20234;-64
2022/10/14 11:23:12;;;;;;;1.13;1.02;;;17.80;1.00;;;;;;5001559;28;20200;-64
2022/10/14 11:25:56;;;;;;;1.92;1.00;;;17.60;34.10;;;;;;5033518;28;20196;-64
2022/10/14 11:28:44;;;;;;;2.55;1.13;;;17.50;52.30;;;;;;5016502;28;20217;-64
2022/10/14 11:31:24;;;;;;;1.08;0.90;;;17.50;46.00;;;;;;5014483;28;20255;-64
2022/10/14 11:34:14;;;;;;;1.63;1.20;;;17.60;93.10;;;;;;5003329;28;20650;-64
2022/10/14 11:37:05;;;;;;;1.25;0.90;;;17.50;99.90;;;;;;5000569;28;20232;-64
2022/10/14 11:39:32;;;;;;;1.33;0.90;;;17.30;99.90;;;;;;5001977;28;20212;-64
2022/10/14 11:42:30;;;;;;;1.05;0.90;;;17.40;99.90;;;;;;5004208;28;20279;-65
2022/10/14 11:45:16;;;;;;;1.20;1.10;;;17.30;99.90;;;;;;5002492;28;20308;-64
2022/10/14 11:48:08;;;;;;;1.00;0.80;;;17.20;99.90;;;;;;5028950;28;20204;-64
2022/10/14 11:50:41;;;;;;;2.50;1.00;;;17.10;99.90;;;;;;4999058;28;20204;-65
2022/10/14 11:53:14;;;;;;;0.80;0.80;;;17.00;99.90;;;;;;5001565;28;20588;-64
2022/10/14 11:55:59;;;;;;;5.03;1.73;;;16.90;99.90;;;;;;5000378;28;20188;-64
2022/10/14 11:58:29;;;;;;;0.82;0.82;;;16.90;99.90;;;;;;5001707;28;20308;-64
2022/10/14 12:01:15;;;;;;;1.00;1.00;;;16.90;99.90;;;;;;5001834;28;20208;-64
2022/10/14 12:04:03;;;;;;;1.08;0.98;;;16.90;99.90;;;;;;5001450;28;20894;-63
2022/10/14 12:06:36;;;;;;;4.72;1.10;;;17.00;99.90;;;;;;5001998;28;20229;-64
2022/10/14 12:09:25;;;;;;;1.60;1.30;;;16.90;99.90;;;;;;5001979;28;20201;-66
2022/10/14 12:11:58;;;;;;;1.45;1.15;;;16.90;99.90;;;;;;5001682;28;20653;-64
2022/10/14 12:14:33;;;;;;;5.25;1.17;;;16.90;99.90;;;;;;5001107;28;20201;-64
2022/10/14 12:17:04;;;;;;;2.28;1.33;;;17.00;99.90;;;;;;5000890;28;20205;-64
2022/10/14 12:19:32;;;;;;;1.52;1.05;;;16.90;99.90;;;;;;5001781;28;20747;-64
2022/10/14 12:22:24;;;;;;;1.40;1.30;;;16.90;99.90;;;;;;4984088;28;20296;-64
2022/10/14 12:25:00;;;;;;;1.30;1.20;;;16.80;99.90;;;;;;5018672;28;20203;-64
2022/10/14 12:27:28;;;;;;;1.95;1.20;;;17.00;99.90;;;;;;5001961;28;20216;-64
2022/10/14 12:29:59;;;;;;;2.72;1.25;;;17.10;99.90;;;;;;5033818;28;20206;-63
2022/10/14 12:32:29;;;;;;;4.78;2.33;;;17.10;99.90;;;;;;5002666;28;20710;-62
2022/10/14 12:35:00;;;;;;;2.50;1.80;;;17.10;99.90;;;;;;5000552;28;20261;-62
2022/10/14 12:37:41;;;;;;;3.38;1.70;;;17.20;99.90;;;;;;5004894;28;20281;-63
2022/10/14 12:40:11;;;;;;;4.53;2.75;;;17.20;99.90;;;;;;5000604;28;20669;-63
2022/10/14 12:42:50;;;;;;;3.83;2.60;;;17.20;99.90;;;;;;5001148;28;20196;-64
2022/10/14 12:45:23;;;;;;;3.08;2.70;;;17.10;99.90;;;;;;5000395;28;20298;-63
2022/10/14 12:48:06;;;;;;;2.95;2.65;;;17.30;99.90;;;;;;4999778;28;20206;-63
2022/10/14 12:50:38;;;;;;;8.30;4.00;;;17.40;99.90;;;;;;5031768;28;20656;-63
2022/10/14 12:53:15;;;;;;;3.70;2.85;;;17.20;99.90;;;;;;5029883;28;20671;-64
2022/10/14 12:55:52;;;;;;;7.78;3.30;;;17.30;99.90;;;;;;5002720;28;20194;-63
2022/10/14 12:58:36;;;;;;;5.82;3.85;;;17.30;99.90;;;;;;5001883;28;20205;-63
2022/10/14 13:01:16;;;;;;;3.50;3.17;;;17.40;99.90;;;;;;5022464;28;20295;-63
2022/10/14 13:04:16;;;;;;;3.78;3.33;;;17.30;99.90;;;;;;5000761;28;20747;-63
2022/10/14 13:07:26;;;;;;;3.78;3.33;;;17.40;99.10;;;;;;4999944;28;20236;-63
2022/10/14 13:10:38;;;;;;;5.40;3.58;;;17.50;99.40;;;;;;5000837;28;20205;-63
2022/10/14 13:13:37;;;;;;;7.95;4.07;;;17.50;67.00;;;;;;4999130;28;20204;-63
2022/10/14 13:16:09;;;;;;;6.13;4.07;;;17.40;59.60;;;;;;4997258;28;20201;-64
2022/10/14 13:18:36;;;;;;;5.38;4.10;;;17.50;41.80;;;;;;4999954;28;20275;-63
2022/10/14 13:21:05;;;;;;;5.18;4.65;;;18.80;62.00;;;;;;4998484;28;20209;-63